sensor_id;sensor_type;location;lat;lon;timestamp;pressure;altitude;pressure_sealevel;temperature
45701;BMP280;36277;32.852;-116.998;2022-08-19T00:00:51;99623.91;;;26.43
45701;BMP280;36277;32.852;-116.998;2022-08-19T00:03:17;99619.66;;;26.34
45701;BMP280;36277;32.852;-116.998;2022-08-19T00:05:43;99623.72;;;26.25
45701;BMP280;36277;32.852;-116.998;2022-08-19T00:08:10;99626.97;;;26.22
45701;BMP280;36277;32.852;-116.998;2022-08-19T00:10:36;99615.59;;;26.43
45701;BMP280;36277;32.852;-116.998;2022-08-19T00:13:02;99619.09;;;26.63
45701;BMP280;36277;32.852;-116.998;2022-08-19T00:15:29;99611.13;;;26.79
45701;BMP280;36277;32.852;-116.998;2022-08-19T00:17:56;99613.34;;;26.95
45701;BMP280;36277;32.852;-116.998;2022-08-19T00:20:23;99607.94;;;27.07
45701;BMP280;36277;32.852;-116.998;2022-08-19T00:22:50;99615.94;;;27.21
45701;BMP280;36277;32.852;-116.998;2022-08-19T00:25:26;99618.19;;;27.31
45701;BMP280;36277;32.852;-116.998;2022-08-19T00:27:53;99619.16;;;27.43
45701;BMP280;36277;32.852;-116.998;2022-08-19T00:30:19;99607.81;;;27.44
45701;BMP280;36277;32.852;-116.998;2022-08-19T00:32:45;99624.47;;;27.20
45701;BMP280;36277;32.852;-116.998;2022-08-19T00:35:14;99612.50;;;26.95
45701;BMP280;36277;32.852;-116.998;2022-08-19T00:37:40;99621.56;;;26.77
45701;BMP280;36277;32.852;-116.998;2022-08-19T00:40:11;99621.63;;;26.64
45701;BMP280;36277;32.852;-116.998;2022-08-19T00:42:47;99612.53;;;26.57
45701;BMP280;36277;32.852;-116.998;2022-08-19T00:45:18;99625.41;;;26.76
45701;BMP280;36277;32.852;-116.998;2022-08-19T00:47:46;99616.91;;;27.02
45701;BMP280;36277;32.852;-116.998;2022-08-19T00:50:17;99622.09;;;27.23
45701;BMP280;36277;32.852;-116.998;2022-08-19T00:52:47;99620.28;;;27.35
45701;BMP280;36277;32.852;-116.998;2022-08-19T00:55:19;99626.59;;;27.42
45701;BMP280;36277;32.852;-116.998;2022-08-19T00:57:51;99620.53;;;27.09
45701;BMP280;36277;32.852;-116.998;2022-08-19T01:00:19;99624.47;;;26.89
45701;BMP280;36277;32.852;-116.998;2022-08-19T01:02:45;99615.13;;;26.83
45701;BMP280;36277;32.852;-116.998;2022-08-19T01:05:16;99622.00;;;26.74
45701;BMP280;36277;32.852;-116.998;2022-08-19T01:07:44;99630.56;;;26.73
45701;BMP280;36277;32.852;-116.998;2022-08-19T01:10:14;99633.66;;;26.83
45701;BMP280;36277;32.852;-116.998;2022-08-19T01:12:41;99629.91;;;27.02
45701;BMP280;36277;32.852;-116.998;2022-08-19T01:15:09;99634.72;;;26.82
45701;BMP280;36277;32.852;-116.998;2022-08-19T01:17:38;99631.63;;;26.72
45701;BMP280;36277;32.852;-116.998;2022-08-19T01:20:07;99624.69;;;26.56
45701;BMP280;36277;32.852;-116.998;2022-08-19T01:22:43;99621.63;;;26.64
45701;BMP280;36277;32.852;-116.998;2022-08-19T01:25:10;99618.97;;;26.51
45701;BMP280;36277;32.852;-116.998;2022-08-19T01:27:42;99615.81;;;26.48
45701;BMP280;36277;32.852;-116.998;2022-08-19T01:30:14;99614.94;;;26.41
45701;BMP280;36277;32.852;-116.998;2022-08-19T01:32:45;99619.66;;;26.34
45701;BMP280;36277;32.852;-116.998;2022-08-19T01:35:12;99623.56;;;26.20
45701;BMP280;36277;32.852;-116.998;2022-08-19T01:37:53;99617.63;;;26.10
45701;BMP280;36277;32.852;-116.998;2022-08-19T01:40:22;99620.81;;;26.14
45701;BMP280;36277;32.852;-116.998;2022-08-19T01:42:59;99614.47;;;26.07
45701;BMP280;36277;32.852;-116.998;2022-08-19T01:45:27;99613.84;;;26.05
45701;BMP280;36277;32.852;-116.998;2022-08-19T01:47:55;99605.38;;;25.93
45701;BMP280;36277;32.852;-116.998;2022-08-19T01:50:22;99613.03;;;25.91
45701;BMP280;36277;32.852;-116.998;2022-08-19T01:52:48;99609.44;;;25.84
45701;BMP280;36277;32.852;-116.998;2022-08-19T01:55:18;99607.75;;;25.83
45701;BMP280;36277;32.852;-116.998;2022-08-19T01:57:53;99603.28;;;25.82
45701;BMP280;36277;32.852;-116.998;2022-08-19T02:00:24;99620.50;;;25.71
45701;BMP280;36277;32.852;-116.998;2022-08-19T02:02:51;99613.50;;;25.62
45701;BMP280;36277;32.852;-116.998;2022-08-19T02:05:18;99616.50;;;25.61
45701;BMP280;36277;32.852;-116.998;2022-08-19T02:07:47;99611.78;;;25.68
45701;BMP280;36277;32.852;-116.998;2022-08-19T02:10:18;99615.59;;;25.86
45701;BMP280;36277;32.852;-116.998;2022-08-19T02:12:44;99616.19;;;26.01
45701;BMP280;36277;32.852;-116.998;2022-08-19T02:15:11;99625.47;;;26.20
45701;BMP280;36277;32.852;-116.998;2022-08-19T02:17:38;99613.81;;;26.11
45701;BMP280;36277;32.852;-116.998;2022-08-19T02:20:05;99614.69;;;26.05
45701;BMP280;36277;32.852;-116.998;2022-08-19T02:22:33;99616.59;;;26.05
45701;BMP280;36277;32.852;-116.998;2022-08-19T02:24:59;99630.38;;;26.18
45701;BMP280;36277;32.852;-116.998;2022-08-19T02:27:25;99624.78;;;26.31
45701;BMP280;36277;32.852;-116.998;2022-08-19T02:29:52;99637.50;;;26.44
45701;BMP280;36277;32.852;-116.998;2022-08-19T02:32:19;99637.25;;;26.52
45701;BMP280;36277;32.852;-116.998;2022-08-19T02:34:46;99639.56;;;26.62
45701;BMP280;36277;32.852;-116.998;2022-08-19T02:37:13;99648.63;;;26.75
45701;BMP280;36277;32.852;-116.998;2022-08-19T02:39:58;99651.53;;;26.87
45701;BMP280;36277;32.852;-116.998;2022-08-19T02:42:25;99660.22;;;26.97
45701;BMP280;36277;32.852;-116.998;2022-08-19T02:44:51;99660.81;;;27.05
45701;BMP280;36277;32.852;-116.998;2022-08-19T02:47:18;99668.00;;;27.13
45701;BMP280;36277;32.852;-116.998;2022-08-19T02:49:45;99673.97;;;27.10
45701;BMP280;36277;32.852;-116.998;2022-08-19T02:52:11;99671.16;;;26.85
45701;BMP280;36277;32.852;-116.998;2022-08-19T02:54:38;99675.09;;;26.65
45701;BMP280;36277;32.852;-116.998;2022-08-19T02:57:04;99671.59;;;26.45
45701;BMP280;36277;32.852;-116.998;2022-08-19T02:59:32;99671.16;;;26.35
45701;BMP280;36277;32.852;-116.998;2022-08-19T03:01:59;99677.75;;;26.47
45701;BMP280;36277;32.852;-116.998;2022-08-19T03:04:25;99682.59;;;26.58
45701;BMP280;36277;32.852;-116.998;2022-08-19T03:06:52;99689.13;;;26.70
45701;BMP280;36277;32.852;-116.998;2022-08-19T03:09:19;99693.50;;;26.84
45701;BMP280;36277;32.852;-116.998;2022-08-19T03:11:46;99693.25;;;26.92
45701;BMP280;36277;32.852;-116.998;2022-08-19T03:14:13;99695.53;;;27.01
45701;BMP280;36277;32.852;-116.998;2022-08-19T03:16:51;99689.94;;;27.14
45701;BMP280;36277;32.852;-116.998;2022-08-19T03:19:19;99705.47;;;27.15
45701;BMP280;36277;32.852;-116.998;2022-08-19T03:21:46;99701.75;;;26.97
45701;BMP280;36277;32.852;-116.998;2022-08-19T03:24:14;99705.94;;;26.68
45701;BMP280;36277;32.852;-116.998;2022-08-19T03:26:43;99703.22;;;26.62
45701;BMP280;36277;32.852;-116.998;2022-08-19T03:29:11;99708.59;;;26.50
45701;BMP280;36277;32.852;-116.998;2022-08-19T03:31:40;99711.13;;;26.58
45701;BMP280;36277;32.852;-116.998;2022-08-19T03:34:07;99724.50;;;26.68
45701;BMP280;36277;32.852;-116.998;2022-08-19T03:36:33;99733.16;;;26.78
45701;BMP280;36277;32.852;-116.998;2022-08-19T03:39:00;99732.47;;;26.89
45701;BMP280;36277;32.852;-116.998;2022-08-19T03:41:33;99742.00;;;26.99
45701;BMP280;36277;32.852;-116.998;2022-08-19T03:44:03;99742.41;;;27.09
45701;BMP280;36277;32.852;-116.998;2022-08-19T03:46:32;99750.00;;;27.20
45701;BMP280;36277;32.852;-116.998;2022-08-19T03:49:01;99747.78;;;26.98
45701;BMP280;36277;32.852;-116.998;2022-08-19T03:51:36;99747.63;;;26.80
45701;BMP280;36277;32.852;-116.998;2022-08-19T03:54:06;99759.44;;;26.62
45701;BMP280;36277;32.852;-116.998;2022-08-19T03:56:36;99761.38;;;26.55
45701;BMP280;36277;32.852;-116.998;2022-08-19T03:59:03;99764.34;;;26.60
45701;BMP280;36277;32.852;-116.998;2022-08-19T04:01:30;99762.38;;;26.67
45701;BMP280;36277;32.852;-116.998;2022-08-19T04:03:59;99766.84;;;26.75
45701;BMP280;36277;32.852;-116.998;2022-08-19T04:06:30;99767.66;;;26.82
45701;BMP280;36277;32.852;-116.998;2022-08-19T04:08:59;99759.50;;;26.93
45701;BMP280;36277;32.852;-116.998;2022-08-19T04:11:42;99756.69;;;27.06
45701;BMP280;36277;32.852;-116.998;2022-08-19T04:14:14;99761.00;;;26.89
45701;BMP280;36277;32.852;-116.998;2022-08-19T04:16:41;99765.00;;;26.49
45701;BMP280;36277;32.852;-116.998;2022-08-19T04:19:09;99762.91;;;26.32
45701;BMP280;36277;32.852;-116.998;2022-08-19T04:21:36;99766.56;;;26.13
45701;BMP280;36277;32.852;-116.998;2022-08-19T04:24:03;99761.06;;;25.94
45701;BMP280;36277;32.852;-116.998;2022-08-19T04:26:33;99773.38;;;25.65
45701;BMP280;36277;32.852;-116.998;2022-08-19T04:29:03;99763.59;;;25.43
45701;BMP280;36277;32.852;-116.998;2022-08-19T04:31:31;99774.63;;;25.30
45701;BMP280;36277;32.852;-116.998;2022-08-19T04:34:03;99766.47;;;25.03
45701;BMP280;36277;32.852;-116.998;2022-08-19T04:36:33;99769.41;;;25.02
45701;BMP280;36277;32.852;-116.998;2022-08-19T04:39:04;99769.22;;;25.10
45701;BMP280;36277;32.852;-116.998;2022-08-19T04:41:30;99769.47;;;25.08
45701;BMP280;36277;32.852;-116.998;2022-08-19T04:44:15;99771.34;;;25.01
45701;BMP280;36277;32.852;-116.998;2022-08-19T04:46:49;99765.41;;;25.04
45701;BMP280;36277;32.852;-116.998;2022-08-19T04:49:18;99768.56;;;24.95
45701;BMP280;36277;32.852;-116.998;2022-08-19T04:51:46;99760.69;;;24.92
45701;BMP280;36277;32.852;-116.998;2022-08-19T04:54:14;99773.22;;;24.88
45701;BMP280;36277;32.852;-116.998;2022-08-19T04:56:41;99777.84;;;24.81
45701;BMP280;36277;32.852;-116.998;2022-08-19T04:59:07;99781.00;;;24.78
45701;BMP280;36277;32.852;-116.998;2022-08-19T05:01:34;99780.16;;;24.71
45701;BMP280;36277;32.852;-116.998;2022-08-19T05:04:04;99775.69;;;24.70
45701;BMP280;36277;32.852;-116.998;2022-08-19T05:06:31;99776.78;;;24.82
45701;BMP280;36277;32.852;-116.998;2022-08-19T05:09:04;99773.22;;;25.01
45701;BMP280;36277;32.852;-116.998;2022-08-19T05:11:36;99773.31;;;25.14
45701;BMP280;36277;32.852;-116.998;2022-08-19T05:14:05;99770.78;;;25.25
45701;BMP280;36277;32.852;-116.998;2022-08-19T05:16:32;99772.72;;;25.37
45701;BMP280;36277;32.852;-116.998;2022-08-19T05:18:58;99775.94;;;25.47
45701;BMP280;36277;32.852;-116.998;2022-08-19T05:21:44;99768.28;;;25.56
45701;BMP280;36277;32.852;-116.998;2022-08-19T05:24:29;99773.41;;;25.59
45701;BMP280;36277;32.852;-116.998;2022-08-19T05:26:56;99770.19;;;25.68
45701;BMP280;36277;32.852;-116.998;2022-08-19T05:29:25;99771.25;;;25.74
45701;BMP280;36277;32.852;-116.998;2022-08-19T05:31:53;99772.97;;;25.81
45701;BMP280;36277;32.852;-116.998;2022-08-19T05:34:21;99754.91;;;25.85
45701;BMP280;36277;32.852;-116.998;2022-08-19T05:36:49;99760.66;;;25.90
45701;BMP280;36277;32.852;-116.998;2022-08-19T05:39:20;99748.94;;;25.95
45701;BMP280;36277;32.852;-116.998;2022-08-19T05:41:49;99760.44;;;25.98
45701;BMP280;36277;32.852;-116.998;2022-08-19T05:44:16;99763.19;;;25.98
45701;BMP280;36277;32.852;-116.998;2022-08-19T05:46:45;99755.94;;;26.04
45701;BMP280;36277;32.852;-116.998;2022-08-19T05:49:20;99756.34;;;26.07
45701;BMP280;36277;32.852;-116.998;2022-08-19T05:51:47;99762.75;;;26.08
45701;BMP280;36277;32.852;-116.998;2022-08-19T05:54:13;99749.13;;;26.06
45701;BMP280;36277;32.852;-116.998;2022-08-19T05:56:40;99747.88;;;26.09
45701;BMP280;36277;32.852;-116.998;2022-08-19T05:59:08;99747.63;;;26.10
45701;BMP280;36277;32.852;-116.998;2022-08-19T06:01:38;99747.63;;;26.10
45701;BMP280;36277;32.852;-116.998;2022-08-19T06:04:05;99757.41;;;26.19
45701;BMP280;36277;32.852;-116.998;2022-08-19T06:06:32;99747.16;;;26.26
45701;BMP280;36277;32.852;-116.998;2022-08-19T06:09:04;99750.78;;;26.33
45701;BMP280;36277;32.852;-116.998;2022-08-19T06:11:38;99743.50;;;26.38
45701;BMP280;36277;32.852;-116.998;2022-08-19T06:14:14;99743.09;;;26.35
45701;BMP280;36277;32.852;-116.998;2022-08-19T06:16:41;99737.56;;;26.35
45701;BMP280;36277;32.852;-116.998;2022-08-19T06:19:13;99738.84;;;26.39
45701;BMP280;36277;32.852;-116.998;2022-08-19T06:21:42;99736.06;;;26.39
45701;BMP280;36277;32.852;-116.998;2022-08-19T06:24:12;99740.13;;;26.43
45701;BMP280;36277;32.852;-116.998;2022-08-19T06:26:41;99729.91;;;26.43
45701;BMP280;36277;32.852;-116.998;2022-08-19T06:29:10;99734.16;;;26.46
45701;BMP280;36277;32.852;-116.998;2022-08-19T06:31:41;99736.66;;;26.54
45701;BMP280;36277;32.852;-116.998;2022-08-19T06:34:07;99739.25;;;26.55
45701;BMP280;36277;32.852;-116.998;2022-08-19T06:36:48;99740.50;;;26.59
45701;BMP280;36277;32.852;-116.998;2022-08-19T06:39:17;99724.53;;;26.55
45701;BMP280;36277;32.852;-116.998;2022-08-19T06:41:47;99725.88;;;26.33
45701;BMP280;36277;32.852;-116.998;2022-08-19T06:44:17;99724.44;;;26.11
45701;BMP280;36277;32.852;-116.998;2022-08-19T06:46:44;99726.38;;;25.78
45701;BMP280;36277;32.852;-116.998;2022-08-19T06:49:11;99720.22;;;25.44
45701;BMP280;36277;32.852;-116.998;2022-08-19T06:51:44;99719.38;;;25.43
45701;BMP280;36277;32.852;-116.998;2022-08-19T06:54:10;99723.84;;;25.44
45701;BMP280;36277;32.852;-116.998;2022-08-19T06:56:37;99728.97;;;25.47
45701;BMP280;36277;32.852;-116.998;2022-08-19T06:59:06;99730.84;;;25.53
45701;BMP280;36277;32.852;-116.998;2022-08-19T07:01:38;99729.38;;;25.57
45701;BMP280;36277;32.852;-116.998;2022-08-19T07:04:08;99728.72;;;25.75
45701;BMP280;36277;32.852;-116.998;2022-08-19T07:06:36;99734.50;;;25.86
45701;BMP280;36277;32.852;-116.998;2022-08-19T07:09:04;99731.91;;;25.98
45701;BMP280;36277;32.852;-116.998;2022-08-19T07:11:32;99730.22;;;25.97
45701;BMP280;36277;32.852;-116.998;2022-08-19T07:13:59;99728.50;;;25.76
45701;BMP280;36277;32.852;-116.998;2022-08-19T07:16:25;99728.50;;;25.44
45701;BMP280;36277;32.852;-116.998;2022-08-19T07:18:53;99719.81;;;25.34
45701;BMP280;36277;32.852;-116.998;2022-08-19T07:21:22;99722.94;;;25.05
45701;BMP280;36277;32.852;-116.998;2022-08-19T07:23:50;99719.22;;;24.66
45701;BMP280;36277;32.852;-116.998;2022-08-19T07:26:19;99716.56;;;24.45
45701;BMP280;36277;32.852;-116.998;2022-08-19T07:28:46;99714.38;;;24.34
45701;BMP280;36277;32.852;-116.998;2022-08-19T07:31:16;99709.22;;;24.18
45701;BMP280;36277;32.852;-116.998;2022-08-19T07:33:45;99706.09;;;23.94
45701;BMP280;36277;32.852;-116.998;2022-08-19T07:36:14;99697.88;;;23.73
45701;BMP280;36277;32.852;-116.998;2022-08-19T07:38:43;99704.63;;;23.70
45701;BMP280;36277;32.852;-116.998;2022-08-19T07:41:16;99683.47;;;23.77
45701;BMP280;36277;32.852;-116.998;2022-08-19T07:43:44;99688.44;;;23.61
45701;BMP280;36277;32.852;-116.998;2022-08-19T07:46:12;99683.34;;;23.58
45701;BMP280;36277;32.852;-116.998;2022-08-19T07:48:41;99677.31;;;23.41
45701;BMP280;36277;32.852;-116.998;2022-08-19T07:51:09;99681.91;;;23.34
45701;BMP280;36277;32.852;-116.998;2022-08-19T07:53:37;99686.09;;;23.30
45701;BMP280;36277;32.852;-116.998;2022-08-19T07:56:04;99683.09;;;23.25
45701;BMP280;36277;32.852;-116.998;2022-08-19T07:58:34;99670.38;;;23.24
45701;BMP280;36277;32.852;-116.998;2022-08-19T08:01:03;99675.00;;;23.17
45701;BMP280;36277;32.852;-116.998;2022-08-19T08:03:30;99671.69;;;23.28
45701;BMP280;36277;32.852;-116.998;2022-08-19T08:06:15;99667.13;;;23.42
45701;BMP280;36277;32.852;-116.998;2022-08-19T08:09:04;99671.06;;;23.60
45701;BMP280;36277;32.852;-116.998;2022-08-19T08:11:53;99675.28;;;23.56
45701;BMP280;36277;32.852;-116.998;2022-08-19T08:14:31;99672.41;;;23.16
45701;BMP280;36277;32.852;-116.998;2022-08-19T08:16:59;99680.88;;;23.14
45701;BMP280;36277;32.852;-116.998;2022-08-19T08:19:27;99673.50;;;23.00
45701;BMP280;36277;32.852;-116.998;2022-08-19T08:21:55;99674.09;;;22.96
45701;BMP280;36277;32.852;-116.998;2022-08-19T08:24:23;99681.97;;;22.99
45701;BMP280;36277;32.852;-116.998;2022-08-19T08:26:49;99677.47;;;23.12
45701;BMP280;36277;32.852;-116.998;2022-08-19T08:29:15;99682.69;;;23.28
45701;BMP280;36277;32.852;-116.998;2022-08-19T08:31:43;99680.72;;;23.43
45701;BMP280;36277;32.852;-116.998;2022-08-19T08:34:12;99679.09;;;23.55
45701;BMP280;36277;32.852;-116.998;2022-08-19T08:36:42;99673.53;;;23.49
45701;BMP280;36277;32.852;-116.998;2022-08-19T08:39:15;99670.75;;;23.21
45701;BMP280;36277;32.852;-116.998;2022-08-19T08:45:00;99652.28;;;22.95
45701;BMP280;36277;32.852;-116.998;2022-08-19T08:47:42;99641.75;;;22.98
45701;BMP280;36277;32.852;-116.998;2022-08-19T08:50:18;99643.41;;;23.13
45701;BMP280;36277;32.852;-116.998;2022-08-19T08:52:48;99633.53;;;23.25
45701;BMP280;36277;32.852;-116.998;2022-08-19T08:55:19;99626.03;;;23.40
45701;BMP280;36277;32.852;-116.998;2022-08-19T09:00:30;99613.88;;;23.62
45701;BMP280;36277;32.852;-116.998;2022-08-19T09:02:58;99612.47;;;23.45
45701;BMP280;36277;32.852;-116.998;2022-08-19T09:05:54;99630.28;;;23.15
45701;BMP280;36277;32.852;-116.998;2022-08-19T09:14:36;99616.84;;;22.85
45701;BMP280;36277;32.852;-116.998;2022-08-19T09:17:08;99625.22;;;22.98
45701;BMP280;36277;32.852;-116.998;2022-08-19T09:19:46;99619.28;;;23.15
45701;BMP280;36277;32.852;-116.998;2022-08-19T09:22:14;99611.50;;;23.25
45701;BMP280;36277;32.852;-116.998;2022-08-19T09:24:41;99605.22;;;23.38
45701;BMP280;36277;32.852;-116.998;2022-08-19T09:27:07;99610.19;;;23.49
45701;BMP280;36277;32.852;-116.998;2022-08-19T09:29:34;99607.06;;;23.58
45701;BMP280;36277;32.852;-116.998;2022-08-19T09:32:00;99596.84;;;23.52
45701;BMP280;36277;32.852;-116.998;2022-08-19T09:34:26;99588.81;;;23.23
45701;BMP280;36277;32.852;-116.998;2022-08-19T09:36:53;99603.72;;;23.08
45701;BMP280;36277;32.852;-116.998;2022-08-19T09:39:21;99594.81;;;23.06
45701;BMP280;36277;32.852;-116.998;2022-08-19T09:41:47;99597.97;;;23.03
45701;BMP280;36277;32.852;-116.998;2022-08-19T09:44:15;99595.66;;;23.06
45701;BMP280;36277;32.852;-116.998;2022-08-19T09:46:41;99593.63;;;23.15
45701;BMP280;36277;32.852;-116.998;2022-08-19T09:49:08;99588.81;;;23.23
45701;BMP280;36277;32.852;-116.998;2022-08-19T09:51:34;99589.31;;;23.33
45701;BMP280;36277;32.852;-116.998;2022-08-19T09:54:02;99597.22;;;23.43
45701;BMP280;36277;32.852;-116.998;2022-08-19T09:56:29;99585.59;;;23.47
45701;BMP280;36277;32.852;-116.998;2022-08-19T09:59:01;99590.94;;;23.55
45701;BMP280;36277;32.852;-116.998;2022-08-19T10:01:30;99582.63;;;23.42
45701;BMP280;36277;32.852;-116.998;2022-08-19T10:03:59;99573.34;;;23.22
45701;BMP280;36277;32.852;-116.998;2022-08-19T10:06:27;99568.66;;;23.16
45701;BMP280;36277;32.852;-116.998;2022-08-19T10:09:00;99586.56;;;23.06
45701;BMP280;36277;32.852;-116.998;2022-08-19T10:11:26;99588.84;;;23.02
45701;BMP280;36277;32.852;-116.998;2022-08-19T10:13:53;99587.69;;;23.11
45701;BMP280;36277;32.852;-116.998;2022-08-19T10:16:21;99585.22;;;23.23
45701;BMP280;36277;32.852;-116.998;2022-08-19T10:18:49;99578.06;;;23.28
45701;BMP280;36277;32.852;-116.998;2022-08-19T10:21:25;99584.06;;;23.38
45701;BMP280;36277;32.852;-116.998;2022-08-19T10:23:54;99591.72;;;23.43
45701;BMP280;36277;32.852;-116.998;2022-08-19T10:26:24;99589.84;;;23.50
45701;BMP280;36277;32.852;-116.998;2022-08-19T10:28:51;99589.06;;;23.28
45701;BMP280;36277;32.852;-116.998;2022-08-19T10:31:29;99591.56;;;22.96
45701;BMP280;36277;32.852;-116.998;2022-08-19T10:33:56;99583.38;;;22.82
45701;BMP280;36277;32.852;-116.998;2022-08-19T10:36:32;99579.25;;;22.71
45701;BMP280;36277;32.852;-116.998;2022-08-19T10:39:00;99576.13;;;22.74
45701;BMP280;36277;32.852;-116.998;2022-08-19T10:41:30;99590.19;;;22.86
45701;BMP280;36277;32.852;-116.998;2022-08-19T10:44:02;99589.22;;;22.99
45701;BMP280;36277;32.852;-116.998;2022-08-19T10:46:36;99584.66;;;23.06
45701;BMP280;36277;32.852;-116.998;2022-08-19T10:49:04;99581.78;;;23.14
45701;BMP280;36277;32.852;-116.998;2022-08-19T10:51:31;99586.06;;;23.23
45701;BMP280;36277;32.852;-116.998;2022-08-19T10:54:17;99579.09;;;23.27
45701;BMP280;36277;32.852;-116.998;2022-08-19T10:56:43;99570.69;;;23.35
45701;BMP280;36277;32.852;-116.998;2022-08-19T10:59:24;99563.34;;;23.42
45701;BMP280;36277;32.852;-116.998;2022-08-19T11:01:54;99571.38;;;23.44
45701;BMP280;36277;32.852;-116.998;2022-08-19T11:04:24;99574.25;;;23.29
45701;BMP280;36277;32.852;-116.998;2022-08-19T11:06:50;99575.03;;;22.96
45701;BMP280;36277;32.852;-116.998;2022-08-19T11:09:25;99576.31;;;22.73
45701;BMP280;36277;32.852;-116.998;2022-08-19T11:11:53;99579.44;;;22.70
45701;BMP280;36277;32.852;-116.998;2022-08-19T11:14:20;99586.91;;;22.76
45701;BMP280;36277;32.852;-116.998;2022-08-19T11:16:50;99586.56;;;22.85
45701;BMP280;36277;32.852;-116.998;2022-08-19T11:19:17;99582.41;;;22.96
45701;BMP280;36277;32.852;-116.998;2022-08-19T11:21:47;99591.50;;;23.10
45701;BMP280;36277;32.852;-116.998;2022-08-19T11:24:22;99580.97;;;23.20
45701;BMP280;36277;32.852;-116.998;2022-08-19T11:26:51;99578.47;;;23.25
45701;BMP280;36277;32.852;-116.998;2022-08-19T11:29:19;99569.63;;;23.30
45701;BMP280;36277;32.852;-116.998;2022-08-19T11:31:48;99560.53;;;23.36
45701;BMP280;36277;32.852;-116.998;2022-08-19T11:34:21;99557.41;;;23.45
45701;BMP280;36277;32.852;-116.998;2022-08-19T11:36:49;99556.81;;;23.50
45701;BMP280;36277;32.852;-116.998;2022-08-19T11:39:18;99563.00;;;23.58
45701;BMP280;36277;32.852;-116.998;2022-08-19T11:41:45;99554.97;;;23.63
45701;BMP280;36277;32.852;-116.998;2022-08-19T11:44:12;99557.06;;;23.61
45701;BMP280;36277;32.852;-116.998;2022-08-19T11:46:41;99561.13;;;23.31
45701;BMP280;36277;32.852;-116.998;2022-08-19T11:49:09;99565.59;;;23.05
45701;BMP280;36277;32.852;-116.998;2022-08-19T11:51:35;99561.88;;;22.92
45701;BMP280;36277;32.852;-116.998;2022-08-19T11:54:05;99568.44;;;22.91
45701;BMP280;36277;32.852;-116.998;2022-08-19T11:56:32;99568.03;;;22.94
45701;BMP280;36277;32.852;-116.998;2022-08-19T11:58:58;99560.66;;;23.00
45701;BMP280;36277;32.852;-116.998;2022-08-19T12:01:27;99555.50;;;23.12
45701;BMP280;36277;32.852;-116.998;2022-08-19T12:03:55;99565.44;;;23.13
45701;BMP280;36277;32.852;-116.998;2022-08-19T12:06:27;99554.28;;;23.21
45701;BMP280;36277;32.852;-116.998;2022-08-19T12:09:04;99557.72;;;23.29
45701;BMP280;36277;32.852;-116.998;2022-08-19T12:11:32;99556.47;;;23.32
45701;BMP280;36277;32.852;-116.998;2022-08-19T12:13:58;99556.06;;;23.35
45701;BMP280;36277;32.852;-116.998;2022-08-19T12:16:27;99551.28;;;23.43
45701;BMP280;36277;32.852;-116.998;2022-08-19T12:18:56;99547.25;;;23.46
45701;BMP280;36277;32.852;-116.998;2022-08-19T12:21:25;99561.69;;;23.20
45701;BMP280;36277;32.852;-116.998;2022-08-19T12:23:55;99559.94;;;22.86
45701;BMP280;36277;32.852;-116.998;2022-08-19T12:26:23;99565.91;;;22.68
45701;BMP280;36277;32.852;-116.998;2022-08-19T12:28:50;99561.44;;;22.67
45701;BMP280;36277;32.852;-116.998;2022-08-19T12:31:16;99569.34;;;22.77
45701;BMP280;36277;32.852;-116.998;2022-08-19T12:33:43;99567.13;;;22.87
45701;BMP280;36277;32.852;-116.998;2022-08-19T12:36:11;99561.53;;;23.01
45701;BMP280;36277;32.852;-116.998;2022-08-19T12:38:39;99553.59;;;23.12
45701;BMP280;36277;32.852;-116.998;2022-08-19T12:41:11;99553.44;;;23.20
45701;BMP280;36277;32.852;-116.998;2022-08-19T12:43:37;99549.22;;;23.24
45701;BMP280;36277;32.852;-116.998;2022-08-19T12:46:05;99553.53;;;23.33
45701;BMP280;36277;32.852;-116.998;2022-08-19T12:48:33;99558.88;;;23.41
45701;BMP280;36277;32.852;-116.998;2022-08-19T12:51:00;99568.22;;;23.47
45701;BMP280;36277;32.852;-116.998;2022-08-19T12:53:27;99562.47;;;23.42
45701;BMP280;36277;32.852;-116.998;2022-08-19T12:55:58;99559.75;;;23.48
45701;BMP280;36277;32.852;-116.998;2022-08-19T12:58:26;99558.69;;;23.49
45701;BMP280;36277;32.852;-116.998;2022-08-19T13:00:52;99566.59;;;23.59
45701;BMP280;36277;32.852;-116.998;2022-08-19T13:03:19;99565.53;;;23.60
45701;BMP280;36277;32.852;-116.998;2022-08-19T13:05:45;99564.72;;;23.66
45701;BMP280;36277;32.852;-116.998;2022-08-19T13:08:11;99560.78;;;23.47
45701;BMP280;36277;32.852;-116.998;2022-08-19T13:10:37;99560.22;;;23.24
45701;BMP280;36277;32.852;-116.998;2022-08-19T13:13:06;99549.84;;;22.93
45701;BMP280;36277;32.852;-116.998;2022-08-19T13:15:37;99562.69;;;22.86
45701;BMP280;36277;32.852;-116.998;2022-08-19T13:18:07;99566.66;;;22.83
45701;BMP280;36277;32.852;-116.998;2022-08-19T13:20:35;99569.28;;;22.91
45701;BMP280;36277;32.852;-116.998;2022-08-19T13:23:02;99569.31;;;22.98
45701;BMP280;36277;32.852;-116.998;2022-08-19T13:25:30;99565.19;;;23.08
45701;BMP280;36277;32.852;-116.998;2022-08-19T13:27:56;99572.06;;;23.18
45701;BMP280;36277;32.852;-116.998;2022-08-19T13:30:23;99570.19;;;23.25
45701;BMP280;36277;32.852;-116.998;2022-08-19T13:33:09;99567.66;;;23.24
45701;BMP280;36277;32.852;-116.998;2022-08-19T13:35:51;99564.97;;;23.37
45701;BMP280;36277;32.852;-116.998;2022-08-19T13:38:23;99577.75;;;23.44
45701;BMP280;36277;32.852;-116.998;2022-08-19T13:40:51;99574.38;;;23.49
45701;BMP280;36277;32.852;-116.998;2022-08-19T13:43:19;99573.34;;;23.56
45701;BMP280;36277;32.852;-116.998;2022-08-19T13:45:48;99573.78;;;23.60
45701;BMP280;36277;32.852;-116.998;2022-08-19T13:48:15;99570.44;;;23.64
45701;BMP280;36277;32.852;-116.998;2022-08-19T13:50:44;99565.63;;;23.73
45701;BMP280;36277;32.852;-116.998;2022-08-19T13:53:13;99567.84;;;23.56
45701;BMP280;36277;32.852;-116.998;2022-08-19T13:55:41;99564.78;;;23.38